메인 페이지
METAR-TAF:

METAR-TAF

공항 :

시이르트, 터키

위도: 37-58-41N, 경도: 41-50-21E, 고도: 610m

현재 날씨관측

예보는 35분 전, 13:50시(UTC)에 발표되었습니다.
무풍
온도 9°C
습도 100%
기압 1019 hPa
시정: 1000m
고도 1000ft 상공 구름 조금
고도 3000ft 상공 구름 많음
고도 8000ft 상공 흐림
약한비, 박무

METAR: LTCL 141350Z 00000KT 4000 1000N R06/P1700N R24/P1700N -RA BR FEW010 BKN030 OVC080 09/09 Q1019

시각: 17:25 (14:25 UTC)

예보

예보는 3 시간 45분 전, 10:40시(UTC)에 발표되었습니다.
예보 대상 시간: 14일 12시부터 14일 21시까지 (UTC)
여러 방향의 바람 2kt
시정: 4000m
고도 1000ft 상공 구름 조금
고도 3000ft 상공 구름 많음
고도 8000ft 상공 흐림
약한비, 박무
전환 중
14일 17시부터 14일 19시까지 (UTC)
고도 3500ft 상공 구름 많음
고도 9000ft 상공 구름 많음

TAF: LTCL 141040Z 1412/1421 VRB02KT 4000 -RA BR FEW010 BKN030 OVC080 BECMG 1417/1419 BKN035 BKN090

4,000개 이상의 공항 관측 자료 및 예보 (METAR 및 TAF 보고).

지도상에서 검색 가능한 기상관측소가 노란 점과 빨간 점으로 표시되어 있습니다.

기상관측소 명을 보려면 표시 위로 마우스를 이동하세요.

날씨 관측과 예보를 보려면 클릭하세요.

지도 변경 : 확대하려면 엑스 표시가 있는 녹색 버튼, 축소하려면 빼기 표시가 있는 녹색 버튼, 다음 페이지의 지도를 보려면 녹색 화살표를 클릭하세요.


METAR-TAF: